createdAt,value
2022-10-14T00:01:09.525Z,17.92
2022-10-14T00:03:09.532Z,17.92
2022-10-14T00:06:09.541Z,17.9
2022-10-14T00:08:09.529Z,17.87
2022-10-14T00:10:09.516Z,17.85
2022-10-14T00:12:09.589Z,17.85
2022-10-14T00:15:09.530Z,17.85
2022-10-14T00:18:09.528Z,17.86
2022-10-14T00:20:09.535Z,17.85
2022-10-14T00:22:09.521Z,17.86
2022-10-14T00:25:09.547Z,17.87
2022-10-14T00:27:09.568Z,17.87
2022-10-14T00:29:09.571Z,17.87
2022-10-14T00:32:09.557Z,17.87
2022-10-14T00:35:09.579Z,17.83
2022-10-14T00:38:09.530Z,17.86
2022-10-14T00:40:09.571Z,17.85
2022-10-14T00:42:09.580Z,17.82
2022-10-14T00:45:09.554Z,17.82
2022-10-14T00:47:09.582Z,17.83
2022-10-14T00:50:09.547Z,17.86
2022-10-14T00:52:09.535Z,17.86
2022-10-14T00:54:09.540Z,17.87
2022-10-14T00:56:09.590Z,17.87
2022-10-14T00:59:09.582Z,17.87
2022-10-14T01:02:09.541Z,17.87
2022-10-14T01:05:09.547Z,17.85
2022-10-14T01:07:20.210Z,17.85
2022-10-14T01:10:19.834Z,17.84
2022-10-14T01:13:09.553Z,17.86
2022-10-14T01:16:09.596Z,17.83
2022-10-14T01:19:09.556Z,17.83
2022-10-14T01:22:09.583Z,17.84
2022-10-14T01:25:09.531Z,17.83
2022-10-14T01:27:09.596Z,17.82
2022-10-14T01:30:09.588Z,17.82
2022-10-14T01:33:09.549Z,17.81
2022-10-14T01:35:09.562Z,17.82
2022-10-14T01:38:09.575Z,17.84
2022-10-14T01:41:09.587Z,17.82
2022-10-14T01:43:09.566Z,17.82
2022-10-14T01:46:09.591Z,17.82
2022-10-14T01:49:09.549Z,17.79
2022-10-14T01:52:09.537Z,17.83
2022-10-14T01:54:09.542Z,17.85
2022-10-14T01:57:09.551Z,17.83
2022-10-14T01:59:09.589Z,17.82
2022-10-14T02:02:09.590Z,17.83
2022-10-14T02:05:09.537Z,17.84
2022-10-14T02:07:09.569Z,17.83
2022-10-14T02:10:09.529Z,17.84
2022-10-14T02:12:09.532Z,17.83
2022-10-14T02:14:09.549Z,17.83
2022-10-14T02:16:09.574Z,17.83
2022-10-14T02:18:09.560Z,17.83
2022-10-14T02:21:09.547Z,17.83
2022-10-14T02:23:09.573Z,17.83
2022-10-14T02:26:09.554Z,17.79
2022-10-14T02:29:09.535Z,17.79
2022-10-14T02:31:09.563Z,17.79
2022-10-14T02:34:09.517Z,17.79
2022-10-14T02:36:09.569Z,17.78
2022-10-14T02:38:09.557Z,17.77
2022-10-14T02:40:09.564Z,17.75
2022-10-14T02:42:09.637Z,17.77
2022-10-14T02:45:09.671Z,17.74
2022-10-14T02:47:10.055Z,17.71
2022-10-14T02:50:09.562Z,17.73
2022-10-14T02:52:09.595Z,17.73
2022-10-14T02:55:09.610Z,17.7
2022-10-14T02:58:09.567Z,17.7
2022-10-14T03:00:09.548Z,17.73
2022-10-14T03:02:09.640Z,17.73
2022-10-14T03:04:09.603Z,17.71
2022-10-14T03:07:09.671Z,17.7
2022-10-14T03:10:09.547Z,17.7
2022-10-14T03:12:09.591Z,17.69
2022-10-14T03:14:09.791Z,17.69
2022-10-14T03:17:09.591Z,17.69
2022-10-14T03:19:09.599Z,17.69
2022-10-14T03:22:09.607Z,17.66
2022-10-14T03:25:09.574Z,17.64
2022-10-14T03:27:09.843Z,17.62
2022-10-14T03:30:09.545Z,17.62
2022-10-14T03:32:09.579Z,17.61
2022-10-14T03:34:09.598Z,17.58
2022-10-14T03:37:09.596Z,17.58
2022-10-14T03:40:09.577Z,17.56
2022-10-14T03:42:09.655Z,17.54
2022-10-14T03:45:09.585Z,17.53
2022-10-14T03:47:09.589Z,17.52
2022-10-14T03:50:09.617Z,17.53
2022-10-14T03:53:09.563Z,17.54
2022-10-14T03:56:09.563Z,17.54
2022-10-14T03:58:09.652Z,17.56
2022-10-14T04:01:09.568Z,17.54
2022-10-14T04:03:09.626Z,17.53
2022-10-14T04:06:09.968Z,17.54
2022-10-14T04:09:09.602Z,17.53
2022-10-14T04:11:09.600Z,17.52
2022-10-14T04:14:09.628Z,17.53
2022-10-14T04:17:09.579Z,17.52
2022-10-14T04:19:09.607Z,17.52
2022-10-14T04:21:09.588Z,17.51
2022-10-14T04:23:09.586Z,17.52
2022-10-14T04:26:09.861Z,17.51
2022-10-14T04:29:09.597Z,17.51
2022-10-14T04:32:09.568Z,17.51
2022-10-14T04:34:09.849Z,17.49
2022-10-14T04:37:09.590Z,17.48
2022-10-14T04:40:09.564Z,17.45
2022-10-14T04:42:09.732Z,17.45
2022-10-14T04:45:09.596Z,17.44
2022-10-14T04:48:09.571Z,17.45
2022-10-14T04:50:09.602Z,17.43
2022-10-14T04:53:13.406Z,17.45
2022-10-14T04:56:09.586Z,17.45
2022-10-14T04:58:09.596Z,17.43
2022-10-14T05:01:09.590Z,17.42
2022-10-14T05:04:09.573Z,17.43
2022-10-14T05:06:10.084Z,17.43
2022-10-14T05:09:09.610Z,17.43
2022-10-14T05:12:09.585Z,17.42
2022-10-14T05:14:09.673Z,17.44
2022-10-14T05:17:09.585Z,17.45
2022-10-14T05:19:09.612Z,17.45
2022-10-14T05:21:09.612Z,17.48
2022-10-14T05:24:09.601Z,17.48
2022-10-14T05:26:09.573Z,17.48
2022-10-14T05:29:09.607Z,17.46
2022-10-14T05:31:09.595Z,17.45
2022-10-14T05:33:09.587Z,17.45
2022-10-14T05:36:09.630Z,17.44
2022-10-14T05:38:09.624Z,17.43
2022-10-14T05:41:09.606Z,17.42
2022-10-14T05:44:09.603Z,17.43
2022-10-14T05:46:09.587Z,17.43
2022-10-14T05:48:09.595Z,17.42
2022-10-14T05:50:09.605Z,17.43
2022-10-14T05:53:09.618Z,17.42
2022-10-14T05:55:09.679Z,17.43
2022-10-14T05:58:09.603Z,17.41
2022-10-14T06:00:09.591Z,17.41
2022-10-14T06:03:09.694Z,17.4
2022-10-14T06:06:09.585Z,17.4
2022-10-14T06:09:11.466Z,17.36
2022-10-14T06:12:09.661Z,17.37
2022-10-14T06:15:09.579Z,17.39
2022-10-14T06:17:09.627Z,17.4
2022-10-14T06:20:09.579Z,17.42
2022-10-14T06:23:09.575Z,17.43
2022-10-14T06:25:09.700Z,17.44
2022-10-14T06:28:09.607Z,17.44
2022-10-14T06:31:09.626Z,17.45
2022-10-14T06:33:09.594Z,17.45
2022-10-14T06:36:09.613Z,17.44
2022-10-14T06:39:09.599Z,17.45
2022-10-14T06:42:13.027Z,17.48
2022-10-14T06:44:09.615Z,17.46
2022-10-14T06:47:09.612Z,17.52
2022-10-14T06:50:09.587Z,17.52
2022-10-14T06:53:09.590Z,17.5
2022-10-14T06:56:09.580Z,17.52
2022-10-14T06:58:09.594Z,17.52
2022-10-14T07:01:09.593Z,17.51
2022-10-14T07:03:09.614Z,17.5
2022-10-14T07:06:09.578Z,17.51
2022-10-14T07:09:09.612Z,17.5
2022-10-14T07:11:09.647Z,17.52
2022-10-14T07:14:09.631Z,17.52
2022-10-14T07:17:09.609Z,17.54
2022-10-14T07:19:09.636Z,17.59
2022-10-14T07:21:09.626Z,17.62
2022-10-14T07:23:09.642Z,17.62
2022-10-14T07:26:09.665Z,17.66
2022-10-14T07:28:09.632Z,17.66
2022-10-14T07:30:11.559Z,17.67
2022-10-14T07:33:09.642Z,17.66
2022-10-14T07:35:09.635Z,17.66
2022-10-14T07:37:09.679Z,17.66
2022-10-14T07:40:09.611Z,17.68
2022-10-14T07:42:09.735Z,17.7
2022-10-14T07:45:09.622Z,17.71
2022-10-14T07:47:09.942Z,17.71
2022-10-14T07:50:09.616Z,17.73
2022-10-14T07:52:09.642Z,17.73
2022-10-14T07:54:09.743Z,17.71
2022-10-14T07:57:09.681Z,17.73
2022-10-14T08:00:09.671Z,17.74
2022-10-14T08:03:09.690Z,17.76
2022-10-14T08:05:37.404Z,17.76
2022-10-14T08:08:09.643Z,17.76
2022-10-14T08:10:09.704Z,17.74
2022-10-14T08:13:09.674Z,17.7
2022-10-14T08:16:09.628Z,17.7
2022-10-14T08:18:09.638Z,17.69
2022-10-14T08:21:09.662Z,17.71
2022-10-14T08:23:09.836Z,17.74
2022-10-14T08:26:09.617Z,17.7
2022-10-14T08:28:09.669Z,17.71
2022-10-14T08:31:09.666Z,17.71
2022-10-14T08:34:09.635Z,17.73
2022-10-14T08:36:09.641Z,17.73
2022-10-14T08:41:09.622Z,17.76
2022-10-14T08:43:09.633Z,17.76
2022-10-14T08:46:09.628Z,17.77
2022-10-14T08:48:09.640Z,17.76
2022-10-14T08:51:09.625Z,17.79
2022-10-14T08:53:09.655Z,17.79
2022-10-14T08:56:09.645Z,17.81
2022-10-14T08:59:09.660Z,17.81
2022-10-14T09:02:09.634Z,17.82
2022-10-14T09:05:09.636Z,17.84
2022-10-14T09:08:09.625Z,17.86
2022-10-14T09:10:09.684Z,17.87
2022-10-14T09:13:09.642Z,17.89
2022-10-14T09:15:09.676Z,17.9
2022-10-14T09:18:09.670Z,17.9
2022-10-14T09:21:10.919Z,17.9
2022-10-14T09:23:09.658Z,17.92
2022-10-14T09:26:09.634Z,17.95
2022-10-14T09:28:09.877Z,17.95
2022-10-14T09:31:09.669Z,17.96
2022-10-14T09:34:09.623Z,17.99
2022-10-14T09:36:09.650Z,17.99
2022-10-14T09:39:09.654Z,18.02
2022-10-14T09:42:09.647Z,18.03
2022-10-14T09:45:09.663Z,18.04
2022-10-14T09:47:10.815Z,18.06
2022-10-14T09:49:09.616Z,18.07
2022-10-14T09:52:09.654Z,18.09
2022-10-14T09:57:09.642Z,18.12
2022-10-14T09:59:09.626Z,18.12
2022-10-14T10:02:09.658Z,18.14
2022-10-14T10:05:09.634Z,18.15
2022-10-14T10:08:09.697Z,18.16
2022-10-14T10:11:09.648Z,18.15
2022-10-14T10:14:09.652Z,18.17
2022-10-14T10:17:09.739Z,18.16
2022-10-14T10:20:09.712Z,18.12
2022-10-14T10:23:09.649Z,18.12
2022-10-14T10:25:09.720Z,18.12
2022-10-14T10:28:09.739Z,18.12
2022-10-14T10:30:09.807Z,18.15
2022-10-14T10:33:09.632Z,18.16
2022-10-14T10:35:09.663Z,18.19
2022-10-14T10:38:09.626Z,18.19
2022-10-14T10:40:09.808Z,18.2
2022-10-14T10:43:09.664Z,18.24
2022-10-14T10:46:09.637Z,18.27
2022-10-14T10:48:09.648Z,18.28
2022-10-14T10:50:09.689Z,18.29
2022-10-14T10:52:09.721Z,18.28
2022-10-14T10:55:09.674Z,18.28
2022-10-14T10:57:09.699Z,18.28
2022-10-14T11:00:09.805Z,18.29
2022-10-14T11:02:09.707Z,18.29
2022-10-14T11:04:09.702Z,18.29
2022-10-14T11:07:09.677Z,18.28
2022-10-14T11:10:09.691Z,18.27
2022-10-14T11:13:12.787Z,18.28
2022-10-14T11:15:09.709Z,18.29
2022-10-14T11:18:09.686Z,18.29
2022-10-14T11:21:09.654Z,18.35
2022-10-14T11:23:09.681Z,18.36
2022-10-14T11:25:09.665Z,18.36
2022-10-14T11:28:09.642Z,18.37
2022-10-14T11:30:09.708Z,18.37
2022-10-14T11:32:09.618Z,18.39
2022-10-14T11:34:09.636Z,18.4
2022-10-14T11:36:09.648Z,18.4
2022-10-14T11:39:09.650Z,18.39
2022-10-14T11:42:09.626Z,18.41
2022-10-14T11:44:09.647Z,18.42
2022-10-14T11:47:09.641Z,18.42
2022-10-14T11:49:09.702Z,18.4
2022-10-14T11:51:09.661Z,18.4
2022-10-14T11:54:09.701Z,18.43
2022-10-14T11:57:09.637Z,18.41
2022-10-14T11:59:09.661Z,18.43
2022-10-14T12:01:09.688Z,18.44
2022-10-14T12:04:09.707Z,18.44
2022-10-14T12:06:09.674Z,18.44
2022-10-14T12:09:09.666Z,18.48
2022-10-14T12:12:09.667Z,18.45
2022-10-14T12:14:09.683Z,18.45
2022-10-14T12:17:11.645Z,18.45
2022-10-14T12:20:09.664Z,18.49
2022-10-14T12:22:09.673Z,18.5
2022-10-14T12:25:09.653Z,18.52
2022-10-14T12:28:09.693Z,18.51
2022-10-14T12:30:09.751Z,18.52
2022-10-14T12:33:09.673Z,18.56
2022-10-14T12:36:09.680Z,18.58
2022-10-14T12:38:09.707Z,18.59
2022-10-14T12:41:09.667Z,18.6
2022-10-14T12:43:09.746Z,18.6
2022-10-14T12:45:09.700Z,18.61
2022-10-14T12:48:09.684Z,18.62
2022-10-14T12:50:25.481Z,18.62
2022-10-14T12:52:09.724Z,18.62
2022-10-14T12:55:09.648Z,18.64
2022-10-14T12:57:09.642Z,18.65
2022-10-14T12:59:09.710Z,18.64
2022-10-14T13:02:09.676Z,18.68
2022-10-14T13:04:10.097Z,18.67
2022-10-14T13:07:11.927Z,18.68
2022-10-14T13:10:09.761Z,18.7
2022-10-14T13:12:09.688Z,18.7
2022-10-14T13:15:09.697Z,18.71
2022-10-14T13:18:09.674Z,18.74
2022-10-14T13:21:09.699Z,18.77
2022-10-14T13:24:09.666Z,18.79
2022-10-14T13:26:09.690Z,18.78
2022-10-14T13:29:09.694Z,18.79
2022-10-14T13:32:09.686Z,18.78
2022-10-14T13:34:09.705Z,18.77
2022-10-14T13:37:09.646Z,18.78
2022-10-14T13:39:09.695Z,18.79
2022-10-14T13:42:09.662Z,18.78
2022-10-14T13:44:09.702Z,18.78
2022-10-14T13:47:09.733Z,18.81
2022-10-14T13:50:09.699Z,18.79
2022-10-14T13:52:09.690Z,18.81
2022-10-14T13:54:09.698Z,18.81
2022-10-14T13:56:09.740Z,18.83
2022-10-14T13:59:11.821Z,18.85
2022-10-14T14:01:09.773Z,18.86
2022-10-14T14:03:09.691Z,18.85
2022-10-14T14:05:09.706Z,18.87
2022-10-14T14:08:40.145Z,18.87
2022-10-14T14:10:09.711Z,18.87
2022-10-14T14:13:09.708Z,18.9
2022-10-14T14:16:09.818Z,18.93
2022-10-14T14:19:10.371Z,18.93
2022-10-14T14:22:09.685Z,18.94
2022-10-14T14:25:24.975Z,18.95
2022-10-14T14:28:09.720Z,18.95
2022-10-14T14:30:09.848Z,18.98
2022-10-14T14:34:09.681Z,19
2022-10-14T14:37:34.151Z,19.02
2022-10-14T14:39:10.762Z,19.04
2022-10-14T14:42:09.677Z,19.03
2022-10-14T14:44:25.453Z,19.03
2022-10-14T14:47:09.719Z,19.03
2022-10-14T14:50:29.313Z,19.03
2022-10-14T14:53:09.688Z,19.03
2022-10-14T14:55:09.727Z,19.01
2022-10-14T14:58:09.682Z,18.99
2022-10-14T15:00:09.738Z,18.99
2022-10-14T15:02:09.750Z,19.01
2022-10-14T15:05:12.833Z,18.98
2022-10-14T15:07:09.725Z,18.98
2022-10-14T15:10:09.731Z,18.98
2022-10-14T15:13:09.690Z,18.98
2022-10-14T15:15:09.966Z,18.96
2022-10-14T15:18:09.698Z,18.95
2022-10-14T15:21:09.674Z,18.94
2022-10-14T15:23:09.694Z,18.94
2022-10-14T15:25:09.710Z,18.95
2022-10-14T15:28:09.679Z,18.95
2022-10-14T15:30:10.819Z,18.93
2022-10-14T15:33:09.712Z,18.91
2022-10-14T15:36:09.717Z,18.89
2022-10-14T15:39:09.701Z,18.91
2022-10-14T15:41:09.699Z,18.91
2022-10-14T15:44:09.683Z,18.91
2022-10-14T15:46:09.744Z,18.92
2022-10-14T15:49:09.714Z,18.92
2022-10-14T15:51:09.733Z,18.94
2022-10-14T15:54:09.699Z,18.95
2022-10-14T15:56:09.714Z,18.96
2022-10-14T15:59:09.681Z,18.96
2022-10-14T16:02:09.703Z,18.98
2022-10-14T16:04:09.698Z,18.95
2022-10-14T16:07:09.798Z,18.94
2022-10-14T16:10:09.693Z,18.92
2022-10-14T16:12:09.719Z,18.9
2022-10-14T16:15:09.700Z,18.9
2022-10-14T16:18:09.676Z,18.87
2022-10-14T16:20:09.707Z,18.86
2022-10-14T16:23:09.704Z,18.79
2022-10-14T16:25:09.741Z,18.82
2022-10-14T16:27:09.773Z,18.84
2022-10-14T16:30:09.910Z,18.87
2022-10-14T16:36:09.709Z,18.92
2022-10-14T16:38:09.933Z,18.93
2022-10-14T16:41:09.736Z,18.9
2022-10-14T16:43:09.758Z,18.9
2022-10-14T16:46:10.585Z,18.89
2022-10-14T16:49:09.675Z,18.87
2022-10-14T16:51:09.875Z,18.87
2022-10-14T16:54:09.723Z,18.89
2022-10-14T16:56:09.734Z,18.87
2022-10-14T16:58:09.756Z,18.87
2022-10-14T17:01:10.106Z,18.86
2022-10-14T17:03:09.717Z,18.85
2022-10-14T17:06:09.692Z,18.82
2022-10-14T17:08:09.716Z,18.82
2022-10-14T17:11:09.723Z,18.82
2022-10-14T17:14:09.723Z,18.82
2022-10-14T17:16:09.704Z,18.83
2022-10-14T17:18:12.225Z,18.82
2022-10-14T17:21:09.708Z,18.82
2022-10-14T17:24:09.719Z,18.82
2022-10-14T17:26:09.742Z,18.82
2022-10-14T17:29:09.686Z,18.81
2022-10-14T17:31:09.772Z,18.79
2022-10-14T17:34:09.740Z,18.79
2022-10-14T17:36:09.770Z,18.79
2022-10-14T17:39:09.742Z,18.78
2022-10-14T17:42:09.700Z,18.75
2022-10-14T17:44:09.725Z,18.75
2022-10-14T17:47:09.749Z,18.69
2022-10-14T17:49:09.753Z,18.67
2022-10-14T17:52:09.712Z,18.66
2022-10-14T17:54:09.731Z,18.65
2022-10-14T17:57:09.749Z,18.65
2022-10-14T17:59:09.728Z,18.64
2022-10-14T18:01:09.803Z,18.66
2022-10-14T18:03:09.719Z,18.68
2022-10-14T18:06:09.721Z,18.68
2022-10-14T18:09:09.769Z,18.66
2022-10-14T18:12:10.315Z,18.62
2022-10-14T18:15:09.737Z,18.62
2022-10-14T18:17:09.853Z,18.64
2022-10-14T18:20:09.876Z,18.68
2022-10-14T18:22:09.744Z,18.67
2022-10-14T18:25:09.737Z,18.69
2022-10-14T18:27:09.722Z,18.69
2022-10-14T18:29:09.740Z,18.7
2022-10-14T18:31:09.816Z,18.7
2022-10-14T18:33:09.796Z,18.69
2022-10-14T18:36:09.790Z,18.69
2022-10-14T18:39:09.717Z,18.67
2022-10-14T18:42:09.807Z,18.67
2022-10-14T18:45:10.831Z,18.66
2022-10-14T18:47:09.803Z,18.65
2022-10-14T18:50:09.745Z,18.64
2022-10-14T18:52:09.785Z,18.62
2022-10-14T18:54:09.797Z,18.64
2022-10-14T18:57:09.775Z,18.64
2022-10-14T19:00:12.008Z,18.62
2022-10-14T19:03:09.824Z,18.64
2022-10-14T19:06:09.820Z,18.64
2022-10-14T19:08:09.858Z,18.62
2022-10-14T19:11:09.767Z,18.64
2022-10-14T19:13:09.768Z,18.64
2022-10-14T19:15:09.791Z,18.64
2022-10-14T19:18:09.789Z,18.64
2022-10-14T19:20:09.767Z,18.62
2022-10-14T19:22:09.818Z,18.62
2022-10-14T19:25:09.783Z,18.62
2022-10-14T19:28:09.742Z,18.61
2022-10-14T19:30:09.980Z,18.61
2022-10-14T19:33:09.795Z,18.62
2022-10-14T19:36:09.753Z,18.62
2022-10-14T19:38:09.784Z,18.62
2022-10-14T19:41:09.747Z,18.65
2022-10-14T19:44:09.731Z,18.64
2022-10-14T19:46:09.774Z,18.62
2022-10-14T19:49:09.770Z,18.62
2022-10-14T19:52:09.728Z,18.62
2022-10-14T19:55:09.735Z,18.62
2022-10-14T19:57:09.738Z,18.6
2022-10-14T19:59:09.752Z,18.62
2022-10-14T20:04:09.799Z,18.61
2022-10-14T20:07:09.771Z,18.61
2022-10-14T20:09:09.789Z,18.62
2022-10-14T20:11:09.777Z,18.62
2022-10-14T20:13:09.795Z,18.58
2022-10-14T20:16:09.763Z,18.58
2022-10-14T20:19:09.802Z,18.59
2022-10-14T20:22:09.766Z,18.59
2022-10-14T20:24:09.763Z,18.58
2022-10-14T20:27:11.130Z,18.57
2022-10-14T20:30:09.794Z,18.58
2022-10-14T20:32:09.820Z,18.59
2022-10-14T20:35:12.780Z,18.59
2022-10-14T20:38:09.815Z,18.58
2022-10-14T20:40:09.802Z,18.58
2022-10-14T20:43:09.825Z,18.58
2022-10-14T20:46:09.796Z,18.58
2022-10-14T20:48:09.788Z,18.59
2022-10-14T20:50:09.784Z,18.56
2022-10-14T20:52:09.769Z,18.57
2022-10-14T20:55:09.831Z,18.58
2022-10-14T20:58:09.755Z,18.58
2022-10-14T21:00:09.765Z,18.52
2022-10-14T21:02:13.077Z,18.52
2022-10-14T21:05:09.823Z,18.54
2022-10-14T21:07:09.851Z,18.54
2022-10-14T21:09:09.862Z,18.54
2022-10-14T21:11:12.085Z,18.56
2022-10-14T21:14:09.773Z,18.54
2022-10-14T21:16:09.784Z,18.54
2022-10-14T21:19:10.042Z,18.56
2022-10-14T21:22:09.750Z,18.54
2022-10-14T21:24:09.836Z,18.53
2022-10-14T21:27:09.905Z,18.53
2022-10-14T21:29:09.905Z,18.53
2022-10-14T21:32:09.765Z,18.54
2022-10-14T21:35:10.246Z,18.54
2022-10-14T21:38:09.779Z,18.53
2022-10-14T21:40:09.779Z,18.51
2022-10-14T21:42:09.839Z,18.5
2022-10-14T21:45:09.836Z,18.52
2022-10-14T21:48:09.809Z,18.52
2022-10-14T21:50:09.831Z,18.5
2022-10-14T21:53:10.350Z,18.52
2022-10-14T21:55:09.817Z,18.52
2022-10-14T21:58:09.859Z,18.52
2022-10-14T22:01:09.814Z,18.52
2022-10-14T22:03:09.778Z,18.52
2022-10-14T22:06:09.763Z,18.53
2022-10-14T22:08:09.808Z,18.52
2022-10-14T22:11:09.765Z,18.53
2022-10-14T22:13:09.781Z,18.52
2022-10-14T22:16:09.789Z,18.52
2022-10-14T22:19:09.750Z,18.51
2022-10-14T22:21:09.755Z,18.48
2022-10-14T22:24:09.792Z,18.49
2022-10-14T22:27:09.765Z,18.5
2022-10-14T22:29:09.806Z,18.5
2022-10-14T22:32:10.120Z,18.5
2022-10-14T22:35:09.797Z,18.5
2022-10-14T22:37:09.814Z,18.51
2022-10-14T22:40:09.801Z,18.48
2022-10-14T22:42:09.777Z,18.45
2022-10-14T22:44:09.846Z,18.46
2022-10-14T22:47:09.817Z,18.49
2022-10-14T22:50:09.822Z,18.49
2022-10-14T22:52:09.875Z,18.49
2022-10-14T22:55:09.783Z,18.5
2022-10-14T22:57:09.799Z,18.51
2022-10-14T23:00:09.774Z,18.5
2022-10-14T23:02:09.799Z,18.49
2022-10-14T23:04:09.791Z,18.5
2022-10-14T23:07:09.787Z,18.51
2022-10-14T23:09:09.861Z,18.51
2022-10-14T23:12:09.826Z,18.49
2022-10-14T23:14:09.856Z,18.5
2022-10-14T23:17:09.791Z,18.5
2022-10-14T23:20:09.808Z,18.5
2022-10-14T23:23:09.813Z,18.51
2022-10-14T23:25:09.811Z,18.49
2022-10-14T23:28:09.826Z,18.51
2022-10-14T23:31:09.883Z,18.52
2022-10-14T23:34:09.783Z,18.52
2022-10-14T23:36:09.835Z,18.52
2022-10-14T23:38:09.790Z,18.52
2022-10-14T23:41:09.837Z,18.5
2022-10-14T23:43:09.791Z,18.49
2022-10-14T23:47:09.863Z,18.5
2022-10-14T23:50:09.805Z,18.5
2022-10-14T23:53:09.852Z,18.51
2022-10-14T23:56:09.808Z,18.51
2022-10-14T23:58:09.814Z,18.52
